Cedar Mountain, North Carolina
Current Conditions -  °F | °C
As of 11:54 PM on Wednesday 17 Dec 2014 (Local Time) from KAVL Reporting Station
Clear Clear  
Wind Chill: 28°   Ceiling: Unl
Heat Index: 36°   Visibility: 10mi
Dew Point: 31°   Wind: 13mph
Humidity: 82%   Direction: 340°NNW
Pressure: 30.13"   Gusts: NA
Location:  35.14°N, 82.64°W
Report Text: KAVL 180454Z AUTO 34011KT 10SM CLR 02/M01 A3013 RMK AO2 SLP203 T00221006 400940022
Loading
Personal Weather Stations






























Interactive Weather Map New forecast layout! Learn more

10-Day Weather Forecast

Advertisements
Track Severe Weather on mobile